Terminal Aerodrome Forecast
Issued by NWS

Home | Current Version | Previous Version | Text Only | Print | Product List | Glossary On
Versions: 1 2 3 4 5 6 7 8 9 10 11 12 13 14 15 16 17 18 19 20 21 22 23 24 25 26 27 28 29 30 31 32 33 34 35 36 37 38 39 40 41 42
000
FTUS45 KSLC 231810 AAA
TAFLGU
TAF AMD
KLGU 231810Z 2318/2418 25006KT P6SM VCTS SCT070CB BKN100
     FM232000 33009KT P6SM VCSH SCT070 BKN090
     FM232100 30010KT P6SM BKN100
     FM240400 14003KT P6SM SCT100=

USA.gov is the U.S. government's official web portal to all federal, state and local government web resources and services.